Time;durP1;ratioP1;P1;durP2;ratioP2;P2;SDS_P1;SDS_P2;PMS_P1;PMS_P2;Temp;Humidity;BMP_temperature;BMP_pressure;BME280_temperature;BME280_humidity;BME280_pressure;Samples;Min_cycle;Max_cycle;Signal;HPM_P1;HPM_P2
2023/08/20 00:01:13;;;;;;;7.22;4.40;;;;;;;21.25;64.31;94824.06;4992505;28;20206;-75
2023/08/20 00:03:41;;;;;;;10.52;4.78;;;;;;;21.17;64.63;94827.97;4992824;28;20221;-77
2023/08/20 00:06:08;;;;;;;9.30;4.50;;;;;;;21.20;64.45;94820.91;4992864;28;20217;-76
2023/08/20 00:08:35;;;;;;;8.05;4.95;;;;;;;21.24;64.21;94825.25;4992582;28;20209;-77
2023/08/20 00:11:02;;;;;;;6.88;4.53;;;;;;;21.26;64.10;94831.16;4992759;28;20210;-77
2023/08/20 00:13:29;;;;;;;9.15;4.97;;;;;;;21.24;64.04;94811.47;4992179;28;20241;-77
2023/08/20 00:15:58;;;;;;;7.20;4.13;;;;;;;21.39;63.66;94814.25;4991811;28;20217;-76
2023/08/20 00:18:26;;;;;;;6.82;4.30;;;;;;;21.41;63.42;94820.16;4992738;28;20601;-77
2023/08/20 00:20:54;;;;;;;7.20;4.47;;;;;;;21.46;62.91;94817.00;4992533;28;20551;-77
2023/08/20 00:23:21;;;;;;;11.02;5.10;;;;;;;21.52;62.88;94816.22;4992387;28;20217;-76
2023/08/20 00:25:48;;;;;;;7.57;5.22;;;;;;;21.50;62.95;94823.31;4992430;28;20555;-76
2023/08/20 00:28:15;;;;;;;9.00;4.85;;;;;;;21.57;62.59;94826.09;4992295;28;20256;-76
2023/08/20 00:30:42;;;;;;;6.35;4.70;;;;;;;21.53;62.89;94822.53;4992119;28;20252;-77
2023/08/20 00:33:10;;;;;;;5.32;4.28;;;;;;;21.61;62.25;94835.13;4991721;28;20213;-76
2023/08/20 00:35:37;;;;;;;9.40;5.07;;;;;;;21.57;62.52;94828.84;4991985;28;20343;-77
2023/08/20 00:38:04;;;;;;;11.90;5.28;;;;;;;21.58;62.61;94827.66;4992187;28;20674;-77
2023/08/20 00:40:31;;;;;;;8.05;5.13;;;;;;;21.58;62.65;94836.72;5003936;28;20205;-78
2023/08/20 00:42:58;;;;;;;7.68;5.07;;;;;;;21.55;62.67;94825.69;4993022;28;20212;-77
2023/08/20 00:45:25;;;;;;;8.40;5.50;;;;;;;21.51;62.78;94824.88;5003773;28;20201;-76
2023/08/20 00:47:53;;;;;;;7.15;5.07;;;;;;;21.56;62.61;94827.25;4992790;28;20633;-76
2023/08/20 00:50:21;;;;;;;8.35;4.97;;;;;;;21.58;62.51;94831.22;4991797;28;20214;-76
2023/08/20 00:52:48;;;;;;;12.43;5.40;;;;;;;21.47;62.89;94829.59;4992012;28;20218;-77
2023/08/20 00:55:15;;;;;;;7.75;5.15;;;;;;;21.54;62.79;94819.38;4992273;28;20229;-77
2023/08/20 00:57:42;;;;;;;10.32;5.68;;;;;;;21.58;62.67;94820.19;4992087;28;20563;-77
2023/08/20 01:00:10;;;;;;;9.85;6.28;;;;;;;21.59;62.56;94813.44;4991877;28;20210;-78
2023/08/20 01:02:38;;;;;;;9.30;5.28;;;;;;;21.62;62.52;94815.44;4991860;28;20667;-77
2023/08/20 01:05:07;;;;;;;8.00;5.32;;;;;;;21.62;62.19;94809.91;5005854;28;20583;-77
2023/08/20 01:07:44;;;;;;;10.32;5.65;;;;;;;21.64;62.30;94824.09;5004184;28;20210;-77
2023/08/20 01:10:19;;;;;;;9.40;5.53;;;;;;;21.61;62.56;94824.09;4991903;28;20496;-76
2023/08/20 01:12:47;;;;;;;8.15;5.25;;;;;;;21.64;62.36;94815.84;4974966;28;20233;-77
2023/08/20 01:15:14;;;;;;;12.50;6.13;;;;;;;21.62;62.67;94825.69;4992063;28;20284;-77
2023/08/20 01:17:41;;;;;;;6.90;5.30;;;;;;;21.56;62.76;94822.53;4991675;28;20551;-77
2023/08/20 01:20:10;;;;;;;8.07;5.63;;;;;;;21.51;63.00;94824.88;4991669;28;20206;-78
2023/08/20 01:23:00;;;;;;;9.23;5.40;;;;;;;21.38;63.50;94815.41;4991331;28;20206;-78
2023/08/20 01:25:40;;;;;;;10.85;5.85;;;;;;;21.38;63.57;94810.69;4992317;28;20209;-77
2023/08/20 01:28:20;;;;;;;9.55;5.50;;;;;;;21.29;64.11;94818.56;4992270;28;20220;-78
2023/08/20 01:30:47;;;;;;;8.43;6.05;;;;;;;21.18;64.59;94812.97;4992393;28;20608;-77
2023/08/20 01:33:15;;;;;;;8.10;5.82;;;;;;;21.05;65.18;94817.28;4991197;28;20218;-76
2023/08/20 01:35:42;;;;;;;14.15;5.97;;;;;;;20.97;65.57;94810.19;4991508;28;20241;-77
2023/08/20 01:38:09;;;;;;;8.32;5.30;;;;;;;20.83;66.20;94816.44;4991538;28;20209;-76
2023/08/20 01:40:36;;;;;;;7.47;5.10;;;;;;;20.75;66.48;94811.31;4991478;28;20635;-78
2023/08/20 01:43:03;;;;;;;8.40;6.10;;;;;;;20.71;66.70;94805.00;4991588;28;20206;-77
2023/08/20 01:45:31;;;;;;;8.55;5.60;;;;;;;20.68;66.93;94803.78;4992632;28;20268;-77
2023/08/20 01:47:57;;;;;;;5.93;4.43;;;;;;;20.57;67.37;94812.03;4994755;28;20217;-79
2023/08/20 01:50:24;;;;;;;9.15;5.13;;;;;;;20.53;67.35;94794.69;4995268;28;20220;-77
2023/08/20 01:52:51;;;;;;;7.40;4.85;;;;;;;20.57;67.47;94802.97;4995156;28;20433;-77
2023/08/20 01:55:18;;;;;;;9.30;5.63;;;;;;;20.58;67.34;94808.09;4995033;28;20253;-78
2023/08/20 01:57:45;;;;;;;6.72;5.10;;;;;;;20.61;67.37;94811.25;4994668;28;20264;-77
2023/08/20 02:00:13;;;;;;;13.57;6.10;;;;;;;20.61;67.34;94800.25;4994712;28;20213;-77
2023/08/20 02:02:41;;;;;;;7.28;4.90;;;;;;;20.64;67.28;94796.72;4981358;28;20264;-78
2023/08/20 02:05:10;;;;;;;7.93;5.40;;;;;;;20.65;67.32;94796.31;4994461;28;20292;-78
2023/08/20 02:07:37;;;;;;;7.55;5.47;;;;;;;20.56;67.44;94785.66;4994795;28;20280;-78
2023/08/20 02:10:04;;;;;;;7.20;5.25;;;;;;;20.54;67.55;94790.75;4995082;28;20213;-76
2023/08/20 02:12:31;;;;;;;11.38;5.57;;;;;;;20.50;67.58;94787.19;4995044;28;20664;-78
2023/08/20 02:14:58;;;;;;;10.35;5.75;;;;;;;20.39;68.21;94774.56;5008145;28;20584;-77
2023/08/20 02:17:25;;;;;;;9.23;5.28;;;;;;;20.31;68.55;94784.75;4995216;28;20210;-76
2023/08/20 02:19:53;;;;;;;14.27;5.68;;;;;;;20.29;68.76;94789.03;4994627;28;20214;-76
2023/08/20 02:22:20;;;;;;;11.55;5.60;;;;;;;20.21;69.05;94782.72;4994826;28;20717;-77
2023/08/20 02:24:47;;;;;;;11.15;5.72;;;;;;;20.13;69.28;94781.88;4993954;28;20209;-75
2023/08/20 02:27:14;;;;;;;8.45;5.95;;;;;;;20.08;69.78;94781.47;4994035;28;20217;-77
2023/08/20 02:29:41;;;;;;;8.00;6.13;;;;;;;20.06;69.92;94776.38;4994272;28;20225;-75
2023/08/20 02:32:07;;;;;;;7.15;5.78;;;;;;;20.07;69.91;94791.69;4994626;28;20292;-77
2023/08/20 02:34:34;;;;;;;10.98;5.68;;;;;;;20.02;69.84;94780.25;4994612;28;20605;-76
2023/08/20 02:37:02;;;;;;;7.47;4.95;;;;;;;20.05;69.96;94774.78;4994016;28;20655;-76
2023/08/20 02:39:29;;;;;;;10.80;6.03;;;;;;;19.94;70.50;94784.94;4994390;28;20209;-76
2023/08/20 02:41:56;;;;;;;9.30;6.03;;;;;;;19.88;70.87;94786.44;4993975;28;20213;-76
2023/08/20 02:44:22;;;;;;;13.40;6.35;;;;;;;19.86;70.94;94786.84;4994437;28;20224;-77
2023/08/20 02:46:49;;;;;;;12.27;6.28;;;;;;;19.86;71.00;94792.34;4993844;28;20210;-76
2023/08/20 02:49:16;;;;;;;7.20;5.60;;;;;;;19.78;71.24;94787.97;4994261;28;20296;-77
2023/08/20 02:51:43;;;;;;;7.82;5.35;;;;;;;19.80;71.19;94793.88;4993800;28;20217;-77
2023/08/20 02:54:12;;;;;;;12.70;6.03;;;;;;;19.74;71.95;94798.13;4994150;28;20213;-77
2023/08/20 02:56:39;;;;;;;8.23;5.63;;;;;;;19.68;72.44;94796.91;4993010;28;20213;-77
2023/08/20 02:59:05;;;;;;;8.25;6.18;;;;;;;19.62;72.41;94806.69;4994049;28;20205;-77
2023/08/20 03:01:32;;;;;;;11.77;6.70;;;;;;;19.58;72.08;94800.38;4994161;28;20217;-77
2023/08/20 03:03:59;;;;;;;7.55;5.32;;;;;;;19.59;71.84;94807.44;4993491;28;20312;-77
2023/08/20 03:06:26;;;;;;;7.65;5.65;;;;;;;19.61;72.35;94807.84;4994094;28;20206;-77
2023/08/20 03:08:53;;;;;;;8.85;5.80;;;;;;;19.56;71.63;94810.16;4993852;28;20635;-77
2023/08/20 03:11:21;;;;;;;8.70;5.47;;;;;;;19.54;72.04;94815.28;4993714;28;20331;-77
2023/08/20 03:13:48;;;;;;;11.73;6.28;;;;;;;19.47;72.60;94815.94;4993174;28;20368;-77
2023/08/20 03:16:14;;;;;;;7.88;5.95;;;;;;;19.42;73.10;94813.53;4993092;28;20749;-77
2023/08/20 03:18:41;;;;;;;13.40;5.75;;;;;;;19.23;74.15;94816.53;4992996;28;20220;-77
2023/08/20 03:21:08;;;;;;;8.95;6.15;;;;;;;19.27;73.78;94809.88;4993723;28;20670;-77
2023/08/20 03:23:35;;;;;;;10.02;5.70;;;;;;;19.30;73.53;94811.88;4993378;28;20581;-77
2023/08/20 03:26:02;;;;;;;9.40;5.88;;;;;;;19.26;73.32;94810.28;5005566;28;20205;-77
2023/08/20 03:28:30;;;;;;;9.30;5.68;;;;;;;19.19;74.03;94805.50;4994002;28;20316;-77
2023/08/20 03:31:01;;;;;;;9.27;5.88;;;;;;;19.10;74.43;94803.06;4993468;28;20214;-77
2023/08/20 03:33:27;;;;;;;10.57;6.28;;;;;;;18.96;75.19;94807.63;4993090;28;20237;-77
2023/08/20 03:35:54;;;;;;;9.95;6.20;;;;;;;18.88;75.61;94806.75;4992827;28;20575;-77
2023/08/20 03:38:22;;;;;;;12.07;6.50;;;;;;;18.84;75.72;94811.41;4993485;28;20572;-77
2023/08/20 03:40:48;;;;;;;8.20;5.35;;;;;;;18.91;75.59;94810.69;4993143;28;20206;-77
2023/08/20 03:43:15;;;;;;;7.72;5.82;;;;;;;18.88;75.51;94811.44;4993644;28;20233;-77
2023/08/20 03:45:43;;;;;;;8.57;5.75;;;;;;;18.91;75.27;94797.75;4992590;28;20233;-77
2023/08/20 03:48:10;;;;;;;7.95;5.65;;;;;;;18.98;75.09;94803.34;4992986;28;20214;-77
2023/08/20 03:50:37;;;;;;;9.95;6.18;;;;;;;19.02;75.08;94795.13;4992697;28;20217;-77
2023/08/20 03:53:04;;;;;;;8.30;5.68;;;;;;;19.16;73.86;94796.03;4992550;28;20205;-77
2023/08/20 03:55:31;;;;;;;14.73;6.30;;;;;;;19.26;74.16;94794.59;4993028;28;20237;-77
2023/08/20 03:57:58;;;;;;;9.02;5.55;;;;;;;19.45;74.54;94790.81;4992988;28;20220;-77
2023/08/20 04:00:25;;;;;;;8.88;5.72;;;;;;;19.65;74.37;94797.69;4992714;28;20209;-77
2023/08/20 04:02:53;;;;;;;11.57;5.43;;;;;;;20.05;73.05;94794.03;4992726;28;20558;-77
2023/08/20 04:05:20;;;;;;;10.38;6.18;;;;;;;20.26;72.44;94785.09;4992630;28;20261;-77
2023/08/20 04:07:47;;;;;;;7.32;5.57;;;;;;;20.45;71.55;94781.28;4992419;28;20287;-77
2023/08/20 04:10:14;;;;;;;8.10;5.75;;;;;;;20.49;71.36;94782.91;4995070;28;20217;-77
2023/08/20 04:12:41;;;;;;;8.50;5.60;;;;;;;20.41;71.91;94786.78;5002056;28;20233;-77
2023/08/20 04:15:08;;;;;;;10.93;5.60;;;;;;;20.51;71.13;94790.75;4995696;28;20236;-77
2023/08/20 04:17:34;;;;;;;9.90;6.32;;;;;;;20.69;71.22;94780.59;5001935;28;20217;-77
2023/08/20 04:20:04;;;;;;;8.75;6.57;;;;;;;21.40;69.56;94785.50;4992112;28;20213;-77
2023/08/20 04:22:31;;;;;;;10.23;5.88;;;;;;;22.16;66.85;94774.03;4992316;28;20300;-77
2023/08/20 04:24:58;;;;;;;8.93;5.65;;;;;;;22.44;65.42;94776.72;4996373;28;20567;-77
2023/08/20 04:27:24;;;;;;;12.23;6.13;;;;;;;22.52;64.00;94781.03;5001506;28;20651;-77
2023/08/20 04:29:51;;;;;;;9.48;6.00;;;;;;;22.54;64.65;94775.91;4992312;28;20232;-77
2023/08/20 04:32:18;;;;;;;12.50;7.50;;;;;;;22.63;64.54;94784.53;4992447;28;20301;-77
2023/08/20 04:34:46;;;;;;;10.15;7.00;;;;;;;22.73;63.57;94777.38;4991983;28;20217;-77
2023/08/20 04:37:14;;;;;;;10.05;6.97;;;;;;;22.76;63.94;94781.31;4992556;28;20216;-77
2023/08/20 04:39:41;;;;;;;13.02;6.82;;;;;;;22.59;63.82;94778.22;4992350;28;20221;-77
2023/08/20 04:42:07;;;;;;;9.35;6.32;;;;;;;22.60;64.50;94779.81;4992294;28;20213;-77
2023/08/20 04:44:34;;;;;;;13.13;6.93;;;;;;;22.34;64.74;94783.06;4991836;28;20217;-77
2023/08/20 04:47:01;;;;;;;11.73;5.85;;;;;;;22.45;64.64;94783.00;4992105;28;20205;-77
2023/08/20 04:49:29;;;;;;;13.70;6.20;;;;;;;22.72;64.22;94780.53;4992236;28;20220;-77
2023/08/20 04:51:56;;;;;;;10.65;7.00;;;;;;;22.57;63.93;94779.81;4991646;28;20252;-77
2023/08/20 04:54:25;;;;;;;12.68;6.28;;;;;;;22.34;64.82;94781.09;4992288;28;20543;-77
2023/08/20 04:56:52;;;;;;;11.13;6.53;;;;;;;22.81;63.62;94784.50;4992155;28;20225;-78
2023/08/20 04:59:19;;;;;;;9.52;7.38;;;;;;;23.12;62.03;94779.97;4992313;28;20209;-77
2023/08/20 05:01:46;;;;;;;9.88;6.60;;;;;;;23.14;63.24;94785.88;4991621;28;20201;-77
2023/08/20 05:04:12;;;;;;;7.70;6.82;;;;;;;23.25;62.73;94786.59;4992523;28;20268;-77
2023/08/20 05:06:39;;;;;;;8.80;6.15;;;;;;;23.11;62.97;94781.16;4992259;28;20217;-77
2023/08/20 05:09:06;;;;;;;6.68;5.82;;;;;;;23.23;62.23;94794.53;4992424;28;20217;-77
2023/08/20 05:11:34;;;;;;;8.13;6.05;;;;;;;23.62;61.42;94787.97;4992140;28;20214;-77
2023/08/20 05:14:01;;;;;;;10.43;7.63;;;;;;;23.81;60.68;94792.91;4991256;28;20245;-77
2023/08/20 05:16:28;;;;;;;8.45;6.90;;;;;;;24.15;59.80;94792.22;4992043;28;20240;-77
2023/08/20 05:18:55;;;;;;;10.43;7.45;;;;;;;24.65;58.17;94790.50;4992027;28;20213;-78
2023/08/20 05:21:22;;;;;;;8.70;6.65;;;;;;;25.68;55.77;94791.16;4994791;28;20224;-77
2023/08/20 05:23:48;;;;;;;10.27;6.45;;;;;;;26.73;52.43;94787.69;4995368;28;20220;-77
2023/08/20 05:26:15;;;;;;;12.63;7.00;;;;;;;27.63;49.36;94792.16;4995777;28;20217;-78
2023/08/20 05:28:43;;;;;;;10.68;7.30;;;;;;;28.57;46.65;94798.53;4996218;28;20574;-77
2023/08/20 05:31:10;;;;;;;10.75;6.55;;;;;;;28.90;46.04;94788.88;4995881;28;20214;-78
2023/08/20 05:33:37;;;;;;;9.48;6.72;;;;;;;30.33;43.42;94785.25;4995500;28;20296;-78
2023/08/20 05:36:04;;;;;;;7.32;6.20;;;;;;;30.13;42.48;94781.94;4995545;28;20234;-78
2023/08/20 05:38:31;;;;;;;10.93;6.78;;;;;;;30.99;40.52;94786.91;4995494;28;20256;-78
2023/08/20 05:40:58;;;;;;;9.35;6.15;;;;;;;31.33;39.81;94788.06;4995388;28;20624;-78
2023/08/20 05:43:25;;;;;;;9.10;6.53;;;;;;;31.66;39.53;94794.81;4995975;28;20633;-78
2023/08/20 05:45:53;;;;;;;7.18;6.18;;;;;;;32.25;39.01;94795.66;4995189;28;20571;-78
2023/08/20 05:48:20;;;;;;;8.82;7.20;;;;;;;32.29;38.28;94790.66;4995702;28;20206;-78
2023/08/20 05:50:46;;;;;;;7.22;6.18;;;;;;;33.13;36.99;94796.63;4995196;28;20257;-78
2023/08/20 05:53:13;;;;;;;7.47;6.68;;;;;;;33.60;36.36;94800.91;4995806;28;20237;-78
2023/08/20 05:55:40;;;;;;;9.13;6.85;;;;;;;33.78;36.16;94806.47;4995547;28;20288;-78
2023/08/20 05:58:07;;;;;;;9.23;7.50;;;;;;;33.54;36.54;94802.81;4995535;28;20296;-77
2023/08/20 06:00:33;;;;;;;8.27;7.10;;;;;;;32.21;38.66;94805.44;4995345;28;20213;-78
2023/08/20 06:03:02;;;;;;;8.38;7.10;;;;;;;32.35;38.26;94800.03;4995589;28;20257;-78
2023/08/20 06:05:28;;;;;;;11.35;7.50;;;;;;;33.23;37.32;94796.59;4995384;28;20209;-77
2023/08/20 06:07:55;;;;;;;8.85;6.65;;;;;;;33.54;36.44;94800.00;4994985;28;20293;-78
2023/08/20 06:10:22;;;;;;;7.70;6.28;;;;;;;34.57;35.14;94781.72;4994939;28;20522;-77
2023/08/20 06:12:49;;;;;;;10.20;6.45;;;;;;;33.39;35.56;94801.91;4995113;28;20280;-77
2023/08/20 06:15:15;;;;;;;8.68;6.18;;;;;;;33.59;36.55;94799.34;4994798;28;20210;-78
2023/08/20 06:17:42;;;;;;;8.38;6.38;;;;;;;33.34;36.54;94810.97;4995183;28;20213;-78
2023/08/20 06:20:11;;;;;;;8.32;5.90;;;;;;;33.84;35.88;94810.22;4994690;28;20210;-78
2023/08/20 06:22:38;;;;;;;8.43;6.93;;;;;;;34.52;35.83;94802.06;4994946;28;20205;-77
2023/08/20 06:25:06;;;;;;;10.05;6.30;;;;;;;34.58;34.51;94810.59;4994029;28;20229;-78
2023/08/20 06:27:33;;;;;;;7.22;6.03;;;;;;;33.66;35.73;94815.88;4994721;28;20209;-78
2023/08/20 06:30:00;;;;;;;11.02;5.57;;;;;;;33.45;36.99;94811.25;4994177;28;20220;-78
2023/08/20 06:32:27;;;;;;;7.25;5.25;;;;;;;33.45;36.81;94811.25;4994877;28;20252;-78
2023/08/20 06:34:53;;;;;;;8.57;6.03;;;;;;;32.46;38.12;94805.94;4994377;28;20260;-78
2023/08/20 06:37:22;;;;;;;6.82;5.05;;;;;;;33.81;36.71;94811.16;4994835;28;20609;-77
2023/08/20 06:39:49;;;;;;;8.43;5.78;;;;;;;34.63;35.19;94804.31;4994040;28;20228;-76
2023/08/20 06:42:15;;;;;;;7.55;5.30;;;;;;;36.70;32.70;94803.06;4994333;28;20296;-75
2023/08/20 06:44:42;;;;;;;7.95;5.20;;;;;;;34.86;34.16;94802.75;4993954;28;20221;-76
2023/08/20 06:47:09;;;;;;;7.43;5.30;;;;;;;34.04;35.14;94811.69;4993832;28;20721;-76
2023/08/20 06:49:36;;;;;;;7.68;5.53;;;;;;;34.82;33.68;94802.19;4993753;28;20260;-76
2023/08/20 06:52:03;;;;;;;7.50;5.82;;;;;;;35.17;33.82;94811.56;4993570;28;20233;-76
2023/08/20 06:54:32;;;;;;;6.72;5.75;;;;;;;34.50;34.60;94812.25;4993897;28;20279;-76
2023/08/20 06:56:58;;;;;;;7.32;5.07;;;;;;;34.43;33.87;94809.78;4993487;28;20237;-77
2023/08/20 06:59:25;;;;;;;5.78;5.22;;;;;;;34.27;34.32;94813.78;4993129;28;20221;-76
2023/08/20 07:01:52;;;;;;;8.00;5.45;;;;;;;34.39;33.82;94809.97;4993574;28;20209;-76
2023/08/20 07:04:19;;;;;;;5.57;4.97;;;;;;;34.92;33.36;94809.28;5000082;28;20201;-75
2023/08/20 07:06:45;;;;;;;6.10;4.72;;;;;;;34.82;33.10;94807.81;4999598;28;20220;-76
2023/08/20 07:09:12;;;;;;;7.03;4.88;;;;;;;33.65;34.17;94822.75;4993269;28;20205;-77
2023/08/20 07:11:40;;;;;;;6.40;5.15;;;;;;;33.84;33.92;94817.88;4993258;28;20247;-75
2023/08/20 07:14:07;;;;;;;6.07;5.00;;;;;;;33.40;34.58;94814.69;4992876;28;20252;-77
2023/08/20 07:16:34;;;;;;;6.22;5.25;;;;;;;33.89;33.96;94815.19;4993136;28;20233;-75
2023/08/20 07:19:01;;;;;;;9.88;5.30;;;;;;;32.98;35.12;94820.19;4993010;28;20210;-77
2023/08/20 07:21:28;;;;;;;6.25;5.28;;;;;;;34.40;33.59;94810.75;4993461;28;20209;-77
2023/08/20 07:23:54;;;;;;;7.15;5.10;;;;;;;32.90;35.29;94821.75;5001090;28;20251;-76
2023/08/20 07:26:21;;;;;;;6.57;5.28;;;;;;;32.35;36.69;94816.84;4997911;28;20213;-76
2023/08/20 07:28:59;;;;;;;7.38;5.05;;;;;;;30.94;38.71;94823.88;4993061;28;20209;-76
2023/08/20 07:31:27;;;;;;;6.18;4.90;;;;;;;30.00;40.21;94823.88;4993353;28;20224;-76
2023/08/20 07:33:56;;;;;;;7.40;5.20;;;;;;;29.81;40.76;94820.06;4993187;28;20213;-76
2023/08/20 07:36:23;;;;;;;8.25;5.90;;;;;;;29.46;41.91;94819.16;4993282;28;20316;-76
2023/08/20 07:38:51;;;;;;;11.63;5.55;;;;;;;29.65;41.99;94832.13;4993032;28;20665;-78
2023/08/20 07:41:19;;;;;;;5.88;5.25;;;;;;;29.34;42.13;94829.06;4993247;28;20584;-76
2023/08/20 07:43:47;;;;;;;7.93;5.50;;;;;;;29.73;41.45;94832.69;4992598;28;20670;-76
2023/08/20 07:46:16;;;;;;;5.28;4.78;;;;;;;29.34;40.77;94833.84;4992963;28;20499;-76
2023/08/20 07:48:43;;;;;;;7.85;5.20;;;;;;;29.46;41.96;94819.16;4993276;28;20205;-76
2023/08/20 07:51:10;;;;;;;6.55;4.97;;;;;;;30.14;40.48;94831.00;4992435;28;20300;-76
2023/08/20 07:53:37;;;;;;;5.60;5.07;;;;;;;29.43;41.25;94824.84;4992915;28;20273;-75
2023/08/20 07:56:04;;;;;;;5.47;4.25;;;;;;;29.81;40.88;94822.06;4991859;28;20230;-75
2023/08/20 07:58:31;;;;;;;5.18;4.68;;;;;;;29.61;40.29;94825.09;4992963;28;20205;-76
2023/08/20 08:00:58;;;;;;;7.60;4.80;;;;;;;29.74;39.77;94823.09;4992534;28;20209;-76
2023/08/20 08:03:27;;;;;;;5.72;4.82;;;;;;;29.48;41.06;94821.50;4992618;28;20206;-75
2023/08/20 08:05:55;;;;;;;8.85;5.10;;;;;;;29.72;40.33;94824.75;4992116;28;20633;-76
2023/08/20 08:08:23;;;;;;;7.07;4.90;;;;;;;29.92;40.63;94816.94;4992191;28;20272;-76
2023/08/20 08:10:50;;;;;;;6.00;4.95;;;;;;;30.28;39.74;94816.56;4992177;28;20264;-73
2023/08/20 08:13:19;;;;;;;9.68;5.03;;;;;;;30.13;39.92;94818.28;5005520;28;20244;-76
2023/08/20 08:15:46;;;;;;;6.18;5.30;;;;;;;30.18;39.20;94821.28;4992687;28;20210;-77
2023/08/20 08:18:13;;;;;;;6.20;4.80;;;;;;;29.96;39.35;94817.59;4993005;28;20206;-77
2023/08/20 08:20:43;;;;;;;7.45;4.75;;;;;;;29.37;40.92;94819.00;4992678;28;20218;-76
2023/08/20 08:23:10;;;;;;;8.43;4.57;;;;;;;29.82;40.35;94813.25;4992313;28;20214;-76
2023/08/20 08:25:38;;;;;;;7.57;5.13;;;;;;;29.98;39.54;94821.53;4992384;28;20217;-76
2023/08/20 08:28:05;;;;;;;5.57;4.65;;;;;;;30.58;38.09;94812.38;4991975;28;20240;-76
2023/08/20 08:30:32;;;;;;;5.28;4.30;;;;;;;30.28;37.62;94811.75;4992340;28;20236;-73
2023/08/20 08:32:59;;;;;;;5.03;4.10;;;;;;;30.17;37.63;94816.94;4991723;28;20216;-77
2023/08/20 08:35:25;;;;;;;7.72;4.10;;;;;;;29.38;38.89;94817.81;4992171;28;20209;-76
2023/08/20 08:37:54;;;;;;;6.93;4.30;;;;;;;28.84;40.26;94824.09;4991497;28;20236;-77
2023/08/20 08:40:21;;;;;;;7.97;4.53;;;;;;;28.80;39.44;94820.66;4991977;28;20634;-75
2023/08/20 08:42:50;;;;;;;10.48;4.30;;;;;;;29.28;38.21;94813.28;4991703;28;20229;-78
2023/08/20 08:45:19;;;;;;;7.15;4.07;;;;;;;29.46;37.85;94813.56;4991905;28;20297;-76
2023/08/20 08:47:47;;;;;;;4.95;4.03;;;;;;;29.79;37.90;94802.19;4991722;28;20268;-78
2023/08/20 08:50:14;;;;;;;6.05;4.18;;;;;;;30.09;36.74;94806.41;4992103;28;20651;-74
2023/08/20 08:52:43;;;;;;;5.30;3.78;;;;;;;30.01;36.67;94805.88;4991957;28;20201;-75
2023/08/20 08:55:11;;;;;;;4.50;4.10;;;;;;;29.66;36.00;94828.09;4991990;28;20255;-75
2023/08/20 08:57:38;;;;;;;4.10;3.30;;;;;;;29.80;36.10;94817.69;4995596;28;20267;-76
2023/08/20 09:00:06;;;;;;;6.03;4.00;;;;;;;29.94;36.29;94806.06;4995967;28;20636;-77
2023/08/20 09:02:33;;;;;;;4.30;3.60;;;;;;;30.12;35.34;94805.53;4996045;28;20216;-77
2023/08/20 09:05:00;;;;;;;4.25;3.60;;;;;;;30.75;34.29;94811.72;4995737;28;20210;-76
2023/08/20 09:07:27;;;;;;;4.38;3.80;;;;;;;30.84;33.77;94813.06;4996307;28;20570;-77
2023/08/20 09:09:59;;;;;;;4.60;3.70;;;;;;;30.49;35.09;94815.03;4995590;28;20205;-77
2023/08/20 09:12:27;;;;;;;5.82;4.05;;;;;;;30.17;35.47;94811.34;4996009;28;20629;-76
2023/08/20 09:15:00;;;;;;;4.72;4.00;;;;;;;29.87;35.80;94826.66;4995294;28;20332;-76
2023/08/20 09:17:28;;;;;;;5.95;3.90;;;;;;;30.42;35.53;94804.13;4995876;28;20272;-76
2023/08/20 09:19:58;;;;;;;4.72;3.53;;;;;;;30.82;35.37;94802.31;4995367;28;20288;-76
2023/08/20 09:22:25;;;;;;;6.22;3.72;;;;;;;30.69;34.44;94807.97;4995938;28;20293;-76
2023/08/20 09:24:56;;;;;;;6.15;3.72;;;;;;;30.60;34.58;94801.53;4995112;28;20220;-76
2023/08/20 09:27:26;;;;;;;4.32;3.45;;;;;;;30.19;35.21;94797.69;4995757;28;20220;-76
2023/08/20 09:29:57;;;;;;;5.25;3.42;;;;;;;30.77;34.52;94797.28;4995635;28;20267;-76
2023/08/20 09:32:26;;;;;;;3.67;3.38;;;;;;;30.77;34.90;94805.69;4996067;28;20249;-77
2023/08/20 09:34:54;;;;;;;3.80;3.30;;;;;;;31.06;33.39;94797.81;4995052;28;20225;-76
2023/08/20 09:37:21;;;;;;;3.28;2.95;;;;;;;31.29;32.98;94799.41;4995858;28;20244;-76
2023/08/20 09:39:49;;;;;;;3.63;3.33;;;;;;;31.18;32.84;94799.00;4995442;28;20218;-76
2023/08/20 09:42:16;;;;;;;3.63;3.17;;;;;;;31.46;32.65;94808.34;4995446;28;20268;-77
2023/08/20 09:44:45;;;;;;;4.07;3.17;;;;;;;31.41;32.93;94801.34;4995394;28;20256;-76
2023/08/20 09:47:15;;;;;;;4.97;3.35;;;;;;;30.59;32.67;94808.34;4995057;28;20212;-75
2023/08/20 09:49:43;;;;;;;4.07;3.60;;;;;;;30.42;33.21;94809.72;4982862;28;20212;-77
2023/08/20 09:52:11;;;;;;;4.40;3.42;;;;;;;30.22;33.32;94807.97;4994797;28;20217;-76
2023/08/20 09:54:56;;;;;;;4.72;3.15;;;;;;;30.15;33.83;94791.44;4995018;28;20229;-76
2023/08/20 09:57:31;;;;;;;4.32;3.45;;;;;;;30.80;33.39;94790.00;4994804;28;20229;-76
2023/08/20 09:59:59;;;;;;;4.28;3.58;;;;;;;31.01;33.28;94778.84;4994384;28;20662;-81
2023/08/20 10:02:27;;;;;;;5.55;3.30;;;;;;;31.17;32.12;94782.66;4994828;28;20210;-76
2023/08/20 10:04:54;;;;;;;4.10;2.83;;;;;;;30.80;30.53;94793.59;4994620;28;20655;-77
2023/08/20 10:07:24;;;;;;;3.33;2.92;;;;;;;30.51;31.13;94802.19;4994007;28;20201;-76
2023/08/20 10:09:52;;;;;;;3.40;3.10;;;;;;;30.59;30.85;94791.56;4994684;28;20206;-75
2023/08/20 10:12:19;;;;;;;4.85;2.83;;;;;;;31.20;30.77;94788.16;4994490;28;20214;-76
2023/08/20 10:14:46;;;;;;;3.53;3.10;;;;;;;31.20;30.64;94785.34;4994333;28;20245;-77
2023/08/20 10:17:15;;;;;;;2.85;2.65;;;;;;;31.05;31.23;94790.66;4994078;28;20598;-75
2023/08/20 10:19:43;;;;;;;3.30;2.78;;;;;;;30.98;30.72;94796.53;4994411;28;20213;-75
2023/08/20 10:22:10;;;;;;;3.03;2.70;;;;;;;30.70;31.44;94781.56;4994566;28;20682;-75
2023/08/20 10:24:49;;;;;;;4.88;2.95;;;;;;;30.16;32.87;94797.81;4994369;28;20210;-76
2023/08/20 10:27:28;;;;;;;3.97;2.92;;;;;;;30.18;32.59;94801.72;4994657;28;20293;-76
2023/08/20 10:29:55;;;;;;;4.60;3.15;;;;;;;30.03;32.94;94789.44;4993734;28;20241;-76
2023/08/20 10:32:46;;;;;;;5.07;3.38;;;;;;;30.25;32.84;94801.47;4994238;28;20574;-77
2023/08/20 10:35:16;;;;;;;3.47;2.92;;;;;;;30.85;33.11;94779.03;4982584;28;20618;-76
2023/08/20 10:38:04;;;;;;;4.10;2.90;;;;;;;30.42;32.61;94785.31;4994156;28;20218;-76
2023/08/20 10:40:54;;;;;;;4.60;2.90;;;;;;;30.43;32.52;94777.72;4994374;28;20614;-75
2023/08/20 10:43:31;;;;;;;4.20;3.13;;;;;;;30.50;33.22;94771.88;4993984;28;20229;-76
2023/08/20 10:46:05;;;;;;;3.88;3.13;;;;;;;30.83;32.88;94784.28;4993667;28;20209;-75
2023/08/20 10:48:33;;;;;;;5.65;3.03;;;;;;;31.21;32.90;94780.53;5004589;28;20255;-77
2023/08/20 10:51:07;;;;;;;4.05;3.03;;;;;;;30.85;32.42;94781.84;4996028;28;20216;-77
2023/08/20 10:53:34;;;;;;;4.38;3.72;;;;;;;30.58;32.90;94779.59;4994255;28;20610;-76
2023/08/20 10:56:12;;;;;;;4.13;3.05;;;;;;;30.32;33.73;94767.69;4993489;28;20271;-75
2023/08/20 10:58:41;;;;;;;4.18;3.78;;;;;;;30.40;33.99;94769.00;4987510;28;20226;-77
2023/08/20 11:01:20;;;;;;;3.80;3.25;;;;;;;30.34;34.46;94770.03;4993481;28;20210;-75
2023/08/20 11:03:48;;;;;;;3.92;3.17;;;;;;;30.81;33.66;94764.38;4994178;28;20682;-74
2023/08/20 11:06:16;;;;;;;3.88;3.20;;;;;;;31.02;33.73;94752.41;4993596;28;20276;-76
2023/08/20 11:08:44;;;;;;;4.38;3.47;;;;;;;31.25;33.50;94750.38;4993832;28;20209;-76
2023/08/20 11:11:11;;;;;;;4.28;3.40;;;;;;;31.23;33.88;94750.06;4993392;28;20544;-76
2023/08/20 11:13:38;;;;;;;4.93;3.25;;;;;;;30.90;33.09;94750.44;4993291;28;20285;-77
2023/08/20 11:16:07;;;;;;;5.80;3.17;;;;;;;30.31;33.59;94766.13;4992990;28;20205;-78
2023/08/20 11:18:34;;;;;;;4.05;3.28;;;;;;;30.15;33.58;94757.91;4992318;28;20243;-76
2023/08/20 11:21:02;;;;;;;3.22;2.92;;;;;;;30.66;33.71;94764.13;4993137;28;20317;-78
2023/08/20 11:23:31;;;;;;;3.53;3.00;;;;;;;30.54;34.17;94744.59;4998166;28;20221;-76
2023/08/20 11:25:58;;;;;;;6.90;3.17;;;;;;;30.62;34.08;94748.69;5000878;28;20304;-76
2023/08/20 11:28:26;;;;;;;6.63;3.53;;;;;;;30.96;33.80;94745.84;4993334;28;20296;-75
2023/08/20 11:30:54;;;;;;;4.75;3.60;;;;;;;31.20;34.09;94745.38;5005724;28;20595;-76
2023/08/20 11:33:22;;;;;;;7.65;3.58;;;;;;;31.58;33.64;94734.66;4993507;28;20206;-76
2023/08/20 11:35:49;;;;;;;4.78;3.50;;;;;;;31.12;34.09;94738.50;4992828;28;20224;-76